<?xml version="1.0" encoding="UTF-8" standalone="no" ?>
<gpx xmlns="http://www.topografix.com/GPX/1/1" xmlns:xsi="http://www.w3.org/2001/XMLSchema-instance" xsi:schemaLocation="http://www.topografix.com/GPX/1/1 http://www.topografix.com/GPX/1/1/gpx.xsd" version="1.1" creator="VisuGPX - https://www.visugpx.com">
  <metadata>
    <name>Sortie VTT Chartreuse</name>
    <desc><![CDATA[Essai]]></desc>
  </metadata>
  <trk>
    <name><![CDATA[Sortie VTT Chartreuse_2]]></name>
    <trkseg>
      <trkpt lat="45.36459" lon="5.79003">
        <ele>994</ele>
        <time>2008-10-25T07:26:13Z</time>
      </trkpt>
      <trkpt lat="45.36439" lon="5.79035">
        <ele>1012</ele>
        <time>2008-10-25T07:26:35Z</time>
      </trkpt>
      <trkpt lat="45.36442" lon="5.79012">
        <ele>1019</ele>
        <time>2008-10-25T07:27:51Z</time>
      </trkpt>
      <trkpt lat="45.36412" lon="5.78992">
        <ele>1031</ele>
        <time>2008-10-25T07:28:11Z</time>
      </trkpt>
      <trkpt lat="45.36375" lon="5.7896">
        <ele>1032</ele>
        <time>2008-10-25T07:28:37Z</time>
      </trkpt>
      <trkpt lat="45.36332" lon="5.78924">
        <ele>1032</ele>
        <time>2008-10-25T07:29:09Z</time>
      </trkpt>
      <trkpt lat="45.363" lon="5.78892">
        <ele>1033</ele>
        <time>2008-10-25T07:29:31Z</time>
      </trkpt>
      <trkpt lat="45.36255" lon="5.78864">
        <ele>1033</ele>
        <time>2008-10-25T07:29:53Z</time>
      </trkpt>
      <trkpt lat="45.36171" lon="5.78799">
        <ele>1039</ele>
        <time>2008-10-25T07:30:22Z</time>
      </trkpt>
      <trkpt lat="45.36075" lon="5.78707">
        <ele>1041</ele>
        <time>2008-10-25T07:30:55Z</time>
      </trkpt>
      <trkpt lat="45.36038" lon="5.7866">
        <ele>1043</ele>
        <time>2008-10-25T07:31:13Z</time>
      </trkpt>
      <trkpt lat="45.35995" lon="5.78587">
        <ele>1045</ele>
        <time>2008-10-25T07:31:38Z</time>
      </trkpt>
      <trkpt lat="45.35989" lon="5.78563">
        <ele>1045</ele>
        <time>2008-10-25T07:31:45Z</time>
      </trkpt>
      <trkpt lat="45.36032" lon="5.78535">
        <ele>1048</ele>
        <time>2008-10-25T07:31:58Z</time>
      </trkpt>
      <trkpt lat="45.36079" lon="5.78525">
        <ele>1058</ele>
        <time>2008-10-25T07:32:26Z</time>
      </trkpt>
      <trkpt lat="45.36122" lon="5.78518">
        <ele>1069</ele>
        <time>2008-10-25T07:32:52Z</time>
      </trkpt>
      <trkpt lat="45.36163" lon="5.78507">
        <ele>1076</ele>
        <time>2008-10-25T07:33:18Z</time>
      </trkpt>
      <trkpt lat="45.36203" lon="5.78501">
        <ele>1087</ele>
        <time>2008-10-25T07:33:44Z</time>
      </trkpt>
      <trkpt lat="45.36244" lon="5.78497">
        <ele>1090</ele>
        <time>2008-10-25T07:34:11Z</time>
      </trkpt>
      <trkpt lat="45.36281" lon="5.78499">
        <ele>1094</ele>
        <time>2008-10-25T07:34:36Z</time>
      </trkpt>
      <trkpt lat="45.36319" lon="5.78501">
        <ele>1101</ele>
        <time>2008-10-25T07:35:03Z</time>
      </trkpt>
      <trkpt lat="45.3636" lon="5.78505">
        <ele>1108</ele>
        <time>2008-10-25T07:35:30Z</time>
      </trkpt>
      <trkpt lat="45.36416" lon="5.78544">
        <ele>1111</ele>
        <time>2008-10-25T07:36:13Z</time>
      </trkpt>
      <trkpt lat="45.36452" lon="5.7858">
        <ele>1118</ele>
        <time>2008-10-25T07:36:44Z</time>
      </trkpt>
      <trkpt lat="45.365" lon="5.78591">
        <ele>1122</ele>
        <time>2008-10-25T07:37:15Z</time>
      </trkpt>
      <trkpt lat="45.36542" lon="5.78613">
        <ele>1129</ele>
        <time>2008-10-25T07:37:48Z</time>
      </trkpt>
      <trkpt lat="45.36577" lon="5.78634">
        <ele>1131</ele>
        <time>2008-10-25T07:38:16Z</time>
      </trkpt>
      <trkpt lat="45.36615" lon="5.78675">
        <ele>1133</ele>
        <time>2008-10-25T07:38:48Z</time>
      </trkpt>
      <trkpt lat="45.36618" lon="5.78675">
        <ele>1134</ele>
        <time>2008-10-25T07:38:51Z</time>
      </trkpt>
      <trkpt lat="45.3666" lon="5.78694">
        <ele>1137</ele>
        <time>2008-10-25T07:39:29Z</time>
      </trkpt>
      <trkpt lat="45.36676" lon="5.78698">
        <ele>1140</ele>
        <time>2008-10-25T07:39:41Z</time>
      </trkpt>
      <trkpt lat="45.36701" lon="5.78668">
        <ele>1159</ele>
        <time>2008-10-25T07:40:02Z</time>
      </trkpt>
      <trkpt lat="45.36736" lon="5.78634">
        <ele>1159</ele>
        <time>2008-10-25T07:40:30Z</time>
      </trkpt>
      <trkpt lat="45.36759" lon="5.78621">
        <ele>1168</ele>
        <time>2008-10-25T07:40:51Z</time>
      </trkpt>
      <trkpt lat="45.36785" lon="5.78621">
        <ele>1174</ele>
        <time>2008-10-25T07:41:14Z</time>
      </trkpt>
      <trkpt lat="45.3683" lon="5.78636">
        <ele>1177</ele>
        <time>2008-10-25T07:41:50Z</time>
      </trkpt>
      <trkpt lat="45.36888" lon="5.78671">
        <ele>1181</ele>
        <time>2008-10-25T07:42:32Z</time>
      </trkpt>
      <trkpt lat="45.36922" lon="5.78692">
        <ele>1185</ele>
        <time>2008-10-25T07:42:57Z</time>
      </trkpt>
      <trkpt lat="45.36961" lon="5.78701">
        <ele>1193</ele>
        <time>2008-10-25T07:43:22Z</time>
      </trkpt>
      <trkpt lat="45.36987" lon="5.78692">
        <ele>1201</ele>
        <time>2008-10-25T07:43:41Z</time>
      </trkpt>
      <trkpt lat="45.37008" lon="5.78675">
        <ele>1204</ele>
        <time>2008-10-25T07:44:00Z</time>
      </trkpt>
      <trkpt lat="45.37025" lon="5.7866">
        <ele>1209</ele>
        <time>2008-10-25T07:44:17Z</time>
      </trkpt>
      <trkpt lat="45.37053" lon="5.78651">
        <ele>1218</ele>
        <time>2008-10-25T07:44:40Z</time>
      </trkpt>
      <trkpt lat="45.37081" lon="5.78656">
        <ele>1223</ele>
        <time>2008-10-25T07:45:01Z</time>
      </trkpt>
      <trkpt lat="45.37113" lon="5.78647">
        <ele>1227</ele>
        <time>2008-10-25T07:45:25Z</time>
      </trkpt>
      <trkpt lat="45.37145" lon="5.78634">
        <ele>1232</ele>
        <time>2008-10-25T07:45:50Z</time>
      </trkpt>
      <trkpt lat="45.37169" lon="5.78621">
        <ele>1239</ele>
        <time>2008-10-25T07:46:11Z</time>
      </trkpt>
      <trkpt lat="45.37199" lon="5.78604">
        <ele>1240</ele>
        <time>2008-10-25T07:46:34Z</time>
      </trkpt>
      <trkpt lat="45.37201" lon="5.78602">
        <ele>1241</ele>
        <time>2008-10-25T07:46:37Z</time>
      </trkpt>
      <trkpt lat="45.37238" lon="5.78621">
        <ele>1243</ele>
        <time>2008-10-25T07:47:05Z</time>
      </trkpt>
      <trkpt lat="45.37272" lon="5.78645">
        <ele>1248</ele>
        <time>2008-10-25T07:47:34Z</time>
      </trkpt>
      <trkpt lat="45.37296" lon="5.78647">
        <ele>1255</ele>
        <time>2008-10-25T07:47:55Z</time>
      </trkpt>
      <trkpt lat="45.37326" lon="5.78643">
        <ele>1263</ele>
        <time>2008-10-25T07:48:23Z</time>
      </trkpt>
      <trkpt lat="45.37351" lon="5.78656">
        <ele>1264</ele>
        <time>2008-10-25T07:48:45Z</time>
      </trkpt>
      <trkpt lat="45.37371" lon="5.78671">
        <ele>1265</ele>
        <time>2008-10-25T07:49:03Z</time>
      </trkpt>
      <trkpt lat="45.37394" lon="5.78683">
        <ele>1268</ele>
        <time>2008-10-25T07:49:25Z</time>
      </trkpt>
      <trkpt lat="45.37401" lon="5.78662">
        <ele>1274</ele>
        <time>2008-10-25T07:49:38Z</time>
      </trkpt>
      <trkpt lat="45.37392" lon="5.78589">
        <ele>1281</ele>
        <time>2008-10-25T07:50:20Z</time>
      </trkpt>
      <trkpt lat="45.3739" lon="5.78555">
        <ele>1282</ele>
        <time>2008-10-25T07:50:38Z</time>
      </trkpt>
      <trkpt lat="45.37386" lon="5.78544">
        <ele>1283</ele>
        <time>2008-10-25T07:50:44Z</time>
      </trkpt>
      <trkpt lat="45.37384" lon="5.78538">
        <ele>1283</ele>
        <time>2008-10-25T07:50:52Z</time>
      </trkpt>
      <trkpt lat="45.3739" lon="5.78542">
        <ele>1284</ele>
        <time>2008-10-25T07:50:57Z</time>
      </trkpt>
      <trkpt lat="45.3742" lon="5.78561">
        <ele>1289</ele>
        <time>2008-10-25T07:51:23Z</time>
      </trkpt>
      <trkpt lat="45.37444" lon="5.78572">
        <ele>1290</ele>
        <time>2008-10-25T07:51:43Z</time>
      </trkpt>
    </trkseg>
  </trk>
</gpx>